Time;durP1;ratioP1;P1;durP2;ratioP2;P2;SDS_P1;SDS_P2;PMS_P1;PMS_P2;Temp;Humidity;BMP_temperature;BMP_pressure;BME280_temperature;BME280_humidity;BME280_pressure;Samples;Min_cycle;Max_cycle;Signal;HPM_P1;HPM_P2
2023/09/22 00:00:43;;;;;;;0.15;0.10;;;14.60;99.90;;;;;;5011797;28;20363;-73
2023/09/22 00:03:10;;;;;;;0.10;0.10;;;14.80;99.90;;;;;;5025505;28;20078;-83
2023/09/22 00:05:36;;;;;;;1.35;0.93;;;14.60;99.90;;;;;;5011648;28;20030;-78
2023/09/22 00:08:03;;;;;;;1.25;0.55;;;14.70;99.90;;;;;;5011043;28;20022;-73
2023/09/22 00:10:29;;;;;;;0.70;0.70;;;14.50;99.90;;;;;;5011699;28;20034;-74
2023/09/22 00:12:55;;;;;;;0.75;0.75;;;14.40;99.90;;;;;;5011670;28;20041;-81
2023/09/22 00:15:21;;;;;;;0.00;0.00;;;14.30;99.90;;;;;;5011664;28;20030;-73
2023/09/22 00:17:47;;;;;;;2.20;2.03;;;14.50;99.90;;;;;;5011436;28;20030;-73
2023/09/22 00:20:15;;;;;;;1.10;0.82;;;14.50;99.90;;;;;;5007362;28;20486;-73
2023/09/22 00:22:44;;;;;;;0.50;0.50;;;14.50;99.90;;;;;;5010349;28;20073;-73
2023/09/22 00:25:10;;;;;;;1.88;1.77;;;14.60;99.90;;;;;;5011718;28;20029;-73
2023/09/22 00:27:36;;;;;;;1.15;1.08;;;14.60;99.90;;;;;;5011371;28;20504;-73
2023/09/22 00:30:04;;;;;;;1.92;1.70;;;14.50;99.90;;;;;;5010571;28;20034;-73
2023/09/22 00:32:30;;;;;;;6.65;2.38;;;14.60;99.90;;;;;;5010838;28;20351;-75
2023/09/22 00:34:55;;;;;;;0.00;0.00;;;14.60;99.90;;;;;;5010477;28;20044;-73
2023/09/22 00:37:22;;;;;;;0.00;0.00;;;14.70;99.90;;;;;;5010987;28;20034;-73
2023/09/22 00:39:48;;;;;;;2.10;0.70;;;14.80;99.90;;;;;;5010129;28;20034;-73
2023/09/22 00:42:14;;;;;;;0.28;0.28;;;14.80;99.90;;;;;;5011508;28;20025;-73
2023/09/22 00:44:40;;;;;;;2.47;2.28;;;14.80;99.90;;;;;;5011265;28;20371;-73
2023/09/22 00:47:12;;;;;;;7.00;2.67;;;14.70;99.90;;;;;;5009731;28;20079;-73
2023/09/22 00:49:37;;;;;;;3.83;0.88;;;14.70;99.90;;;;;;5009718;28;20038;-73
2023/09/22 00:52:03;;;;;;;0.35;0.35;;;14.80;99.90;;;;;;5010860;28;20034;-73
2023/09/22 00:54:31;;;;;;;1.55;1.45;;;14.80;99.90;;;;;;5010073;28;20094;-74
2023/09/22 00:56:57;;;;;;;0.57;0.55;;;14.80;99.90;;;;;;5009899;28;20390;-74
2023/09/22 00:59:23;;;;;;;0.47;0.32;;;14.80;99.90;;;;;;5010886;28;20057;-73
2023/09/22 01:01:49;;;;;;;0.70;0.60;;;14.70;99.90;;;;;;5010802;28;20061;-73
2023/09/22 01:04:15;;;;;;;1.20;0.85;;;14.70;99.90;;;;;;5010721;28;20065;-73
2023/09/22 01:06:44;;;;;;;1.13;1.02;;;14.90;99.90;;;;;;5010906;28;20026;-73
2023/09/22 01:09:10;;;;;;;5.80;2.17;;;14.80;99.90;;;;;;5010813;28;20025;-74
2023/09/22 01:11:36;;;;;;;1.48;0.88;;;14.80;99.90;;;;;;5009251;28;20098;-82
2023/09/22 01:14:02;;;;;;;3.58;1.77;;;14.90;99.90;;;;;;5009592;28;20034;-75
2023/09/22 01:16:31;;;;;;;3.35;0.88;;;14.90;99.90;;;;;;5010562;28;20071;-73
2023/09/22 01:18:57;;;;;;;3.08;1.48;;;14.90;99.90;;;;;;4996202;28;20079;-73
2023/09/22 01:21:31;;;;;;;0.20;0.20;;;14.80;99.90;;;;;;5009390;28;20824;-73
2023/09/22 01:23:59;;;;;;;3.90;0.77;;;14.90;99.90;;;;;;4993123;28;20037;-77
2023/09/22 01:26:25;;;;;;;0.50;0.50;;;14.90;99.90;;;;;;5009514;28;20025;-83
2023/09/22 01:28:52;;;;;;;0.10;0.10;;;15.00;99.90;;;;;;5009096;28;20026;-76
2023/09/22 01:31:18;;;;;;;0.00;0.00;;;15.00;99.90;;;;;;5008963;28;20041;-73
2023/09/22 01:33:46;;;;;;;0.10;0.10;;;15.00;99.90;;;;;;5010279;28;20141;-75
2023/09/22 01:36:15;;;;;;;3.42;0.45;;;15.00;99.90;;;;;;5009493;28;20094;-78
2023/09/22 01:38:42;;;;;;;0.17;0.17;;;15.00;99.90;;;;;;5008913;28;20030;-74
2023/09/22 01:41:11;;;;;;;2.15;0.93;;;15.00;99.90;;;;;;5010217;28;20066;-81
2023/09/22 01:43:38;;;;;;;1.20;0.32;;;15.00;99.90;;;;;;5009105;28;20022;-75
2023/09/22 01:46:05;;;;;;;0.00;0.00;;;15.10;99.90;;;;;;5010049;28;20030;-74
2023/09/22 01:48:31;;;;;;;3.17;1.08;;;15.10;99.90;;;;;;5010322;28;20030;-74
2023/09/22 01:51:03;;;;;;;0.03;0.03;;;15.00;99.90;;;;;;4992775;28;20437;-74
2023/09/22 01:53:29;;;;;;;0.57;0.50;;;15.00;99.90;;;;;;5009972;28;20432;-73
2023/09/22 01:55:55;;;;;;;0.08;0.08;;;15.00;99.90;;;;;;5010196;28;20032;-74
2023/09/22 01:58:23;;;;;;;0.35;0.35;;;15.10;99.90;;;;;;5008930;28;20428;-73
2023/09/22 02:00:48;;;;;;;2.95;1.50;;;15.00;99.90;;;;;;5009942;28;20594;-74
2023/09/22 02:03:14;;;;;;;0.55;0.55;;;15.10;99.90;;;;;;5010214;28;20118;-73
2023/09/22 02:05:40;;;;;;;0.20;0.20;;;15.00;99.90;;;;;;5008856;28;20022;-73
2023/09/22 02:08:08;;;;;;;0.00;0.00;;;15.10;99.90;;;;;;5008790;28;20026;-73
2023/09/22 02:10:34;;;;;;;0.80;0.80;;;15.10;99.90;;;;;;5005137;28;20022;-73
2023/09/22 02:13:01;;;;;;;0.30;0.30;;;15.10;99.90;;;;;;5003370;28;20073;-73
2023/09/22 02:15:27;;;;;;;0.10;0.10;;;15.20;99.90;;;;;;5008575;28;20566;-73
2023/09/22 02:17:53;;;;;;;5.07;1.00;;;15.20;99.90;;;;;;5010150;28;20130;-84
2023/09/22 02:20:22;;;;;;;2.17;0.55;;;15.10;99.90;;;;;;5008534;28;20025;-71
2023/09/22 02:22:50;;;;;;;1.38;1.13;;;15.10;99.90;;;;;;5008702;28;20038;-84
2023/09/22 02:25:19;;;;;;;8.73;3.08;;;15.10;99.90;;;;;;5008333;28;20026;-80
2023/09/22 02:27:47;;;;;;;1.10;1.10;;;15.00;99.90;;;;;;4987093;28;20023;-74
2023/09/22 02:30:17;;;;;;;4.05;2.05;;;15.20;99.90;;;;;;5021437;28;20036;-79
2023/09/22 02:32:50;;;;;;;0.30;0.30;;;15.20;99.90;;;;;;5011650;28;20041;-79
2023/09/22 02:35:21;;;;;;;4.25;1.63;;;15.10;99.90;;;;;;5010120;28;20034;-75
2023/09/22 02:37:47;;;;;;;1.38;1.27;;;15.10;99.90;;;;;;5010669;28;20030;-73
2023/09/22 02:40:16;;;;;;;1.85;0.65;;;15.20;99.90;;;;;;5011498;28;20489;-74
2023/09/22 02:42:43;;;;;;;0.10;0.10;;;15.20;99.90;;;;;;5012743;28;20038;-73
2023/09/22 02:45:09;;;;;;;0.10;0.10;;;15.20;99.90;;;;;;5011618;28;20068;-84
2023/09/22 02:47:40;;;;;;;1.60;1.52;;;15.20;99.90;;;;;;5012908;28;20026;-76
2023/09/22 02:50:10;;;;;;;2.97;1.35;;;15.20;99.90;;;;;;5013073;28;20118;-73
2023/09/22 02:52:39;;;;;;;0.63;0.40;;;15.20;99.90;;;;;;5012593;28;20025;-76
2023/09/22 02:55:09;;;;;;;0.45;0.15;;;15.20;99.90;;;;;;5010118;28;20053;-76
2023/09/22 02:57:36;;;;;;;2.20;1.83;;;15.20;99.90;;;;;;5012352;28;20428;-74
2023/09/22 03:00:11;;;;;;;2.58;0.73;;;15.30;99.90;;;;;;5011405;28;20029;-73
2023/09/22 03:02:38;;;;;;;1.98;1.20;;;15.20;99.90;;;;;;5012680;28;20057;-73
2023/09/22 03:05:08;;;;;;;0.50;0.45;;;15.30;99.90;;;;;;5010053;28;20097;-74
2023/09/22 03:07:34;;;;;;;1.80;0.88;;;15.30;99.90;;;;;;5011199;28;20439;-73
2023/09/22 03:09:59;;;;;;;0.38;0.38;;;15.40;99.90;;;;;;5012441;28;20065;-73
2023/09/22 03:12:25;;;;;;;0.45;0.45;;;15.40;99.90;;;;;;5011264;28;20128;-73
2023/09/22 03:14:52;;;;;;;1.35;1.17;;;15.50;99.90;;;;;;5011252;28;20121;-76
2023/09/22 03:17:18;;;;;;;0.22;0.22;;;15.30;99.90;;;;;;5011433;28;20018;-73
2023/09/22 03:19:44;;;;;;;0.05;0.05;;;15.30;99.90;;;;;;5011264;28;20033;-75
2023/09/22 03:22:10;;;;;;;3.58;0.93;;;15.10;99.90;;;;;;5011096;28;20025;-78
2023/09/22 03:24:35;;;;;;;12.60;2.70;;;15.00;99.90;;;;;;5011433;28;20026;-75
2023/09/22 03:27:02;;;;;;;1.77;1.02;;;14.80;99.90;;;;;;5011930;28;20057;-74
2023/09/22 03:29:28;;;;;;;0.90;0.47;;;14.80;99.90;;;;;;5012487;28;20079;-75
2023/09/22 03:31:54;;;;;;;0.20;0.20;;;14.80;99.90;;;;;;5010861;28;20561;-74
2023/09/22 03:34:21;;;;;;;0.10;0.10;;;14.90;99.90;;;;;;5012206;28;20634;-71
2023/09/22 03:36:49;;;;;;;3.20;0.85;;;15.00;99.90;;;;;;5011162;28;20034;-76
2023/09/22 03:39:16;;;;;;;0.47;0.47;;;14.90;99.90;;;;;;5010798;28;20033;-80
2023/09/22 03:41:42;;;;;;;0.10;0.08;;;14.80;99.90;;;;;;5009689;28;20394;-73
2023/09/22 03:44:08;;;;;;;0.20;0.20;;;14.70;99.90;;;;;;5010812;28;20117;-75
2023/09/22 03:46:34;;;;;;;0.47;0.47;;;14.80;99.90;;;;;;5010915;28;20105;-75
2023/09/22 03:49:00;;;;;;;0.57;0.57;;;14.70;99.90;;;;;;5010755;28;20083;-75
2023/09/22 03:51:28;;;;;;;0.60;0.60;;;14.60;99.90;;;;;;5010866;28;20355;-77
2023/09/22 03:53:54;;;;;;;1.85;0.47;;;14.50;99.90;;;;;;5010706;28;20038;-71
2023/09/22 03:56:20;;;;;;;0.20;0.20;;;14.50;99.90;;;;;;5082639;28;20022;-77
2023/09/22 03:58:45;;;;;;;1.27;0.95;;;14.50;99.90;;;;;;5027278;28;20091;-74
2023/09/22 04:01:11;;;;;;;0.50;0.50;;;14.50;99.90;;;;;;5011719;28;20432;-81
2023/09/22 04:03:37;;;;;;;1.75;0.43;;;14.50;99.90;;;;;;5010636;28;20026;-73
2023/09/22 04:06:04;;;;;;;0.85;0.82;;;14.40;99.90;;;;;;5010165;28;20390;-74
2023/09/22 04:08:30;;;;;;;0.98;0.65;;;14.40;99.90;;;;;;5010602;28;20363;-73
2023/09/22 04:10:56;;;;;;;0.52;0.38;;;14.30;99.90;;;;;;5009885;28;20058;-75
2023/09/22 04:13:24;;;;;;;0.00;0.00;;;14.30;99.90;;;;;;5011664;28;20041;-74
2023/09/22 04:15:59;;;;;;;0.80;0.57;;;14.40;99.90;;;;;;5010531;28;20037;-73
2023/09/22 04:18:29;;;;;;;0.13;0.13;;;14.40;99.90;;;;;;5013774;28;20090;-74
2023/09/22 04:20:56;;;;;;;0.00;0.00;;;14.50;99.90;;;;;;5011543;28;20054;-73
2023/09/22 04:23:24;;;;;;;0.10;0.10;;;14.50;99.90;;;;;;5009779;28;20422;-80
2023/09/22 04:25:53;;;;;;;0.32;0.32;;;14.40;99.90;;;;;;5011635;28;20037;-78
2023/09/22 04:28:23;;;;;;;0.10;0.10;;;14.30;99.90;;;;;;5011919;28;20080;-82
2023/09/22 04:30:49;;;;;;;0.00;0.00;;;14.20;99.90;;;;;;5011407;28;20079;-78
2023/09/22 04:33:15;;;;;;;0.93;0.32;;;14.20;99.90;;;;;;5011263;28;20046;-74
2023/09/22 04:35:41;;;;;;;0.10;0.10;;;14.20;99.90;;;;;;5011663;28;20352;-74
2023/09/22 04:38:09;;;;;;;7.28;0.95;;;14.20;99.90;;;;;;5010930;28;20040;-73
2023/09/22 04:40:38;;;;;;;1.73;0.57;;;14.10;99.90;;;;;;5011113;28;20416;-75
2023/09/22 04:43:07;;;;;;;1.23;0.65;;;14.00;99.90;;;;;;5011106;28;20034;-74
2023/09/22 04:45:40;;;;;;;3.05;0.73;;;14.00;99.90;;;;;;5011042;28;20034;-73
2023/09/22 04:48:10;;;;;;;0.17;0.17;;;14.00;99.90;;;;;;5011044;28;20416;-73
2023/09/22 04:50:37;;;;;;;3.83;0.25;;;13.90;99.90;;;;;;5011170;28;20108;-73
2023/09/22 04:53:07;;;;;;;1.45;0.52;;;13.80;99.90;;;;;;5010431;28;20098;-73
2023/09/22 04:55:36;;;;;;;1.00;0.57;;;13.80;99.90;;;;;;5011116;28;20026;-73
2023/09/22 04:58:04;;;;;;;0.05;0.05;;;13.80;99.90;;;;;;5010992;28;20082;-82
2023/09/22 05:00:33;;;;;;;0.32;0.32;;;13.90;99.90;;;;;;5011090;28;20030;-81
2023/09/22 05:03:05;;;;;;;0.20;0.20;;;13.90;99.90;;;;;;5010931;28;20116;-73
2023/09/22 05:05:31;;;;;;;0.70;0.70;;;13.80;99.90;;;;;;5010990;28;20040;-77
2023/09/22 05:07:57;;;;;;;1.80;1.20;;;13.80;99.90;;;;;;5010204;28;20097;-76
2023/09/22 05:10:23;;;;;;;0.73;0.70;;;13.80;99.90;;;;;;5010690;28;20187;-75
2023/09/22 05:12:52;;;;;;;0.43;0.43;;;13.70;99.90;;;;;;5010839;28;20065;-75
2023/09/22 05:15:19;;;;;;;0.15;0.15;;;13.70;99.90;;;;;;5010814;28;20062;-78
2023/09/22 05:17:44;;;;;;;0.10;0.10;;;13.70;99.90;;;;;;5010649;28;20130;-82
2023/09/22 05:20:13;;;;;;;0.10;0.10;;;13.70;99.90;;;;;;5010663;28;20057;-77
2023/09/22 05:22:40;;;;;;;1.10;0.50;;;13.70;99.90;;;;;;5010458;28;20080;-77
2023/09/22 05:25:06;;;;;;;0.00;0.00;;;13.70;99.90;;;;;;5010646;28;20029;-82
2023/09/22 05:27:32;;;;;;;0.38;0.38;;;13.70;99.90;;;;;;5010855;28;20018;-74
2023/09/22 05:29:58;;;;;;;0.22;0.22;;;13.70;99.90;;;;;;5010151;28;20033;-81
2023/09/22 05:32:24;;;;;;;0.10;0.10;;;13.70;99.90;;;;;;5012118;28;20391;-80
2023/09/22 05:34:53;;;;;;;0.05;0.05;;;13.80;99.90;;;;;;5001032;28;20038;-79
2023/09/22 05:37:19;;;;;;;0.20;0.20;;;13.60;99.90;;;;;;5009740;28;20144;-79
2023/09/22 05:39:45;;;;;;;0.20;0.20;;;13.70;99.90;;;;;;5001412;28;20058;-75
2023/09/22 05:42:11;;;;;;;0.15;0.15;;;13.70;99.90;;;;;;5006309;28;20729;-81
2023/09/22 05:44:37;;;;;;;3.78;2.72;;;13.70;99.90;;;;;;4998101;28;20036;-80
2023/09/22 05:47:04;;;;;;;0.10;0.10;;;13.60;99.90;;;;;;5010312;28;20033;-76
2023/09/22 05:49:30;;;;;;;0.22;0.22;;;13.60;99.90;;;;;;5010194;28;20026;-81
2023/09/22 05:51:56;;;;;;;1.38;0.93;;;13.60;99.90;;;;;;5009661;28;20030;-75
2023/09/22 05:54:22;;;;;;;0.47;0.47;;;13.60;99.90;;;;;;5009866;28;20431;-75
2023/09/22 05:56:47;;;;;;;0.00;0.00;;;13.50;99.90;;;;;;5010231;28;20040;-75
2023/09/22 05:59:13;;;;;;;1.35;0.55;;;13.50;99.90;;;;;;5009950;28;20029;-75
2023/09/22 06:01:39;;;;;;;0.20;0.20;;;13.50;99.90;;;;;;5024222;28;20034;-74
2023/09/22 06:04:05;;;;;;;0.90;0.75;;;13.50;99.90;;;;;;5025672;28;20040;-75
2023/09/22 06:06:32;;;;;;;0.32;0.28;;;13.50;99.90;;;;;;5028538;28;20015;-74
2023/09/22 06:08:59;;;;;;;0.30;0.30;;;13.50;99.90;;;;;;5088132;28;20063;-74
2023/09/22 06:11:26;;;;;;;0.45;0.45;;;13.60;99.90;;;;;;5075120;28;20050;-74
2023/09/22 06:13:52;;;;;;;0.00;0.00;;;13.60;99.90;;;;;;5053425;28;20560;-73
2023/09/22 06:16:18;;;;;;;4.65;0.95;;;13.60;99.90;;;;;;5051823;28;20499;-74
2023/09/22 06:18:45;;;;;;;5.07;1.30;;;13.50;99.90;;;;;;5022380;28;20022;-73
2023/09/22 06:21:11;;;;;;;0.52;0.32;;;13.40;99.90;;;;;;5057388;28;20051;-73
2023/09/22 06:23:38;;;;;;;1.00;0.52;;;13.50;99.90;;;;;;5078869;28;20016;-73
2023/09/22 06:26:08;;;;;;;0.60;0.35;;;13.60;99.90;;;;;;5050138;28;20042;-73
2023/09/22 06:28:34;;;;;;;1.55;0.50;;;13.60;99.90;;;;;;5032307;28;20034;-73
2023/09/22 06:31:00;;;;;;;2.25;1.55;;;13.60;99.90;;;;;;5010995;28;20105;-74
2023/09/22 06:33:27;;;;;;;0.10;0.10;;;13.50;99.90;;;;;;5068375;28;20044;-73
2023/09/22 06:36:02;;;;;;;0.20;0.20;;;13.40;99.90;;;;;;5058898;28;20041;-73
2023/09/22 06:38:29;;;;;;;0.25;0.25;;;13.60;99.90;;;;;;5020165;28;20031;-73
2023/09/22 06:40:57;;;;;;;6.93;0.73;;;13.60;99.90;;;;;;5023424;28;20088;-73
2023/09/22 06:43:24;;;;;;;0.80;0.70;;;13.60;99.90;;;;;;5066477;28;20028;-73
2023/09/22 06:45:54;;;;;;;1.13;0.45;;;13.50;99.90;;;;;;5078838;28;20026;-74
2023/09/22 06:48:27;;;;;;;3.15;0.65;;;13.60;99.90;;;;;;5066215;28;20086;-72
2023/09/22 06:50:54;;;;;;;0.90;0.80;;;13.50;99.90;;;;;;5042224;28;20022;-73
2023/09/22 06:53:21;;;;;;;2.33;0.60;;;13.80;99.90;;;;;;5015225;28;20462;-73
2023/09/22 06:55:48;;;;;;;0.17;0.17;;;13.60;99.90;;;;;;5074001;28;20047;-73
2023/09/22 06:58:14;;;;;;;0.20;0.20;;;13.70;99.90;;;;;;5070311;28;20030;-73
2023/09/22 07:00:40;;;;;;;0.10;0.10;;;13.60;99.90;;;;;;5050886;28;20553;-73
2023/09/22 07:03:06;;;;;;;0.55;0.40;;;13.80;99.90;;;;;;5023994;28;20018;-73
2023/09/22 07:05:32;;;;;;;2.75;0.82;;;13.80;99.90;;;;;;5011152;28;20030;-73
2023/09/22 07:07:58;;;;;;;1.48;1.05;;;13.90;99.90;;;;;;5069750;28;20036;-73
2023/09/22 07:10:24;;;;;;;1.55;0.57;;;13.80;99.90;;;;;;5073260;28;20031;-73
2023/09/22 07:12:51;;;;;;;0.10;0.10;;;13.80;99.90;;;;;;5083642;28;20115;-78
2023/09/22 07:15:17;;;;;;;1.60;0.85;;;13.80;99.90;;;;;;5031423;28;20223;-78
2023/09/22 07:17:43;;;;;;;0.25;0.22;;;13.80;99.90;;;;;;5029905;28;20026;-76
2023/09/22 07:20:12;;;;;;;4.45;0.80;;;13.90;99.90;;;;;;5022440;28;20026;-78
2023/09/22 07:22:38;;;;;;;1.00;0.73;;;13.90;99.90;;;;;;5094811;28;20046;-78
2023/09/22 07:25:04;;;;;;;0.40;0.40;;;13.90;99.90;;;;;;5079510;28;20028;-76
2023/09/22 07:27:30;;;;;;;0.98;0.68;;;13.80;99.90;;;;;;5039022;28;20033;-76
2023/09/22 07:29:56;;;;;;;1.02;0.77;;;14.00;99.90;;;;;;5008900;28;20041;-74
2023/09/22 07:32:21;;;;;;;1.00;0.70;;;14.10;99.90;;;;;;5011870;28;20045;-78
2023/09/22 07:34:51;;;;;;;2.42;0.95;;;14.20;99.90;;;;;;5012236;28;20166;-83
2023/09/22 07:37:17;;;;;;;0.35;0.35;;;14.30;99.90;;;;;;5011308;28;20033;-78
2023/09/22 07:39:43;;;;;;;0.20;0.20;;;14.50;99.90;;;;;;5010477;28;20022;-77
2023/09/22 07:42:09;;;;;;;0.20;0.20;;;14.50;99.90;;;;;;5011691;28;20438;-76
2023/09/22 07:44:36;;;;;;;0.20;0.20;;;14.50;99.90;;;;;;5012283;28;20041;-83
2023/09/22 07:47:09;;;;;;;0.98;0.88;;;14.50;99.90;;;;;;5011906;28;20113;-81
2023/09/22 07:49:37;;;;;;;1.10;0.77;;;14.40;99.90;;;;;;5011177;28;20110;-82
2023/09/22 07:52:04;;;;;;;1.20;0.50;;;14.40;99.90;;;;;;5010552;28;20405;-82
2023/09/22 07:54:31;;;;;;;2.63;0.98;;;14.20;99.90;;;;;;5012120;28;20061;-78
2023/09/22 07:56:57;;;;;;;0.10;0.10;;;14.40;99.90;;;;;;5010812;28;20486;-83
2023/09/22 07:59:23;;;;;;;0.20;0.20;;;14.40;99.90;;;;;;5011981;28;20030;-83
2023/09/22 08:01:49;;;;;;;0.40;0.28;;;14.50;99.90;;;;;;5010303;28;20397;-82
2023/09/22 08:04:15;;;;;;;0.30;0.30;;;14.40;99.90;;;;;;5011480;28;20021;-77
2023/09/22 08:06:41;;;;;;;0.10;0.10;;;14.30;99.90;;;;;;5010758;28;20034;-78
2023/09/22 08:09:06;;;;;;;0.03;0.03;;;14.30;99.90;;;;;;5011901;28;20034;-79
2023/09/22 08:11:33;;;;;;;0.47;0.47;;;14.50;99.90;;;;;;5010133;28;20029;-78
2023/09/22 08:14:00;;;;;;;0.22;0.13;;;14.60;99.90;;;;;;5011832;28;20057;-79
2023/09/22 08:16:26;;;;;;;0.50;0.50;;;14.40;99.90;;;;;;5011357;28;20026;-78
2023/09/22 08:18:54;;;;;;;0.10;0.10;;;14.30;99.90;;;;;;5010410;28;20033;-79
2023/09/22 08:21:21;;;;;;;0.10;0.10;;;14.50;99.90;;;;;;5026932;28;20031;-79
2023/09/22 08:23:47;;;;;;;1.88;0.65;;;14.50;99.90;;;;;;5032736;28;20074;-78
2023/09/22 08:26:17;;;;;;;0.32;0.32;;;14.90;99.90;;;;;;5019941;28;20500;-78
2023/09/22 08:28:50;;;;;;;0.10;0.10;;;15.00;99.90;;;;;;5033491;28;20036;-78
2023/09/22 08:31:16;;;;;;;0.03;0.03;;;14.90;99.90;;;;;;5084462;28;20504;-78
2023/09/22 08:33:41;;;;;;;10.00;0.88;;;14.80;99.90;;;;;;5046980;28;20118;-78
2023/09/22 08:36:08;;;;;;;10.60;0.32;;;14.80;99.90;;;;;;5028060;28;20018;-78
2023/09/22 08:38:34;;;;;;;0.10;0.10;;;14.90;99.90;;;;;;5021105;28;20074;-84
2023/09/22 08:41:03;;;;;;;0.10;0.10;;;15.10;99.90;;;;;;5035218;28;20059;-79
2023/09/22 08:43:29;;;;;;;1.35;0.85;;;15.10;99.90;;;;;;5075025;28;20024;-86
2023/09/22 08:45:55;;;;;;;1.60;0.50;;;15.40;99.90;;;;;;5037046;28;20531;-75
2023/09/22 08:48:24;;;;;;;0.40;0.30;;;15.50;99.90;;;;;;5024749;28;20026;-83
2023/09/22 08:50:50;;;;;;;3.75;0.98;;;15.70;99.90;;;;;;5013762;28;20113;-78
2023/09/22 08:53:16;;;;;;;1.55;0.70;;;15.60;99.90;;;;;;5052768;28;20118;-82
2023/09/22 08:55:42;;;;;;;1.33;0.68;;;15.70;99.90;;;;;;5056806;28;20014;-81
2023/09/22 08:58:08;;;;;;;4.25;0.32;;;15.70;99.90;;;;;;5033109;28;20462;-85
2023/09/22 09:00:35;;;;;;;1.38;0.40;;;15.80;99.90;;;;;;5025907;28;20470;-82
2023/09/22 09:03:09;;;;;;;8.25;0.65;;;15.80;99.90;;;;;;5038888;28;20065;-78
2023/09/22 09:05:38;;;;;;;0.20;0.20;;;15.80;99.90;;;;;;5079014;28;20396;-79
2023/09/22 09:08:18;;;;;;;0.50;0.50;;;15.70;99.90;;;;;;5041111;28;20029;-77
2023/09/22 09:10:46;;;;;;;0.52;0.52;;;15.60;99.90;;;;;;5041252;28;20038;-78
2023/09/22 09:13:17;;;;;;;1.58;1.48;;;15.70;99.90;;;;;;5063278;28;20040;-78
2023/09/22 09:15:47;;;;;;;0.20;0.20;;;15.70;99.90;;;;;;5025413;28;20034;-78
2023/09/22 09:18:23;;;;;;;0.00;0.00;;;15.50;99.90;;;;;;5012263;28;20482;-77
2023/09/22 09:21:10;;;;;;;0.15;0.15;;;15.50;99.90;;;;;;5063102;28;20024;-77
2023/09/22 09:23:36;;;;;;;6.03;0.40;;;15.70;99.90;;;;;;5062283;28;20035;-77
2023/09/22 09:26:02;;;;;;;0.20;0.20;;;15.80;99.90;;;;;;5033777;28;20014;-77
2023/09/22 09:28:29;;;;;;;0.50;0.50;;;15.90;99.90;;;;;;5022104;28;20109;-74
2023/09/22 09:30:57;;;;;;;0.82;0.30;;;15.90;99.90;;;;;;5098683;28;20019;-74
2023/09/22 09:33:25;;;;;;;0.40;0.20;;;16.00;99.90;;;;;;5085480;28;20514;-78
2023/09/22 09:35:52;;;;;;;0.13;0.13;;;16.40;99.90;;;;;;5044609;28;20113;-79
2023/09/22 09:38:28;;;;;;;0.00;0.00;;;16.60;99.90;;;;;;5029383;28;20478;-78
2023/09/22 09:40:56;;;;;;;0.52;0.28;;;16.80;99.90;;;;;;5026691;28;20460;-76
2023/09/22 09:43:22;;;;;;;0.00;0.00;;;16.90;99.90;;;;;;5004673;28;20030;-81
2023/09/22 09:45:57;;;;;;;0.00;0.00;;;16.80;99.90;;;;;;5042145;28;20511;-78
2023/09/22 09:48:24;;;;;;;0.75;0.20;;;16.70;99.90;;;;;;5037273;28;20500;-78
2023/09/22 09:50:57;;;;;;;1.05;0.20;;;16.60;99.90;;;;;;5027815;28;20041;-77
2023/09/22 09:53:26;;;;;;;2.47;1.00;;;16.50;99.90;;;;;;5014624;28;20125;-76
2023/09/22 09:55:58;;;;;;;0.10;0.10;;;16.50;99.90;;;;;;5059123;28;20341;-83
2023/09/22 09:58:30;;;;;;;1.00;0.10;;;16.90;99.90;;;;;;5036529;28;20034;-82
2023/09/22 10:00:58;;;;;;;0.30;0.30;;;16.50;99.90;;;;;;5018665;28;20032;-82
2023/09/22 10:03:26;;;;;;;0.00;0.00;;;16.60;99.90;;;;;;5050563;28;20122;-80
2023/09/22 10:05:53;;;;;;;0.45;0.43;;;16.80;99.90;;;;;;5069886;28;20166;-78
2023/09/22 10:08:20;;;;;;;0.00;0.00;;;16.60;99.90;;;;;;5041451;28;20046;-78
2023/09/22 10:10:50;;;;;;;0.63;0.20;;;16.50;99.90;;;;;;5044083;28;20027;-78
2023/09/22 10:13:16;;;;;;;0.20;0.17;;;16.60;99.90;;;;;;5059111;28;20040;-78
2023/09/22 10:15:56;;;;;;;0.32;0.20;;;16.50;99.90;;;;;;5022691;28;20607;-77
2023/09/22 10:18:44;;;;;;;1.77;0.90;;;16.40;99.90;;;;;;5011505;28;20046;-78
2023/09/22 10:21:38;;;;;;;0.05;0.05;;;16.40;99.90;;;;;;5034856;28;20074;-77
2023/09/22 10:24:20;;;;;;;1.00;0.40;;;16.60;99.90;;;;;;5039811;28;20033;-78
2023/09/22 10:26:55;;;;;;;0.05;0.05;;;16.50;99.90;;;;;;5043698;28;20051;-78
2023/09/22 10:29:33;;;;;;;0.88;0.35;;;16.40;99.90;;;;;;5048396;28;20040;-79
2023/09/22 10:32:29;;;;;;;0.93;0.43;;;16.30;99.90;;;;;;5089394;28;20392;-79
2023/09/22 10:35:10;;;;;;;0.10;0.10;;;16.70;99.90;;;;;;5007799;28;20031;-80
2023/09/22 10:37:37;;;;;;;4.07;0.40;;;16.50;99.90;;;;;;5028220;28;20030;-79
2023/09/22 10:40:11;;;;;;;0.52;0.52;;;16.70;99.90;;;;;;5015644;28;20113;-80
2023/09/22 10:42:49;;;;;;;1.08;0.75;;;16.70;99.90;;;;;;5013979;28;20136;-80
2023/09/22 10:45:21;;;;;;;0.20;0.20;;;16.40;99.90;;;;;;5059254;28;20022;-78
2023/09/22 10:47:55;;;;;;;0.47;0.45;;;16.50;99.90;;;;;;5022947;28;20072;-78
2023/09/22 10:50:26;;;;;;;1.55;0.63;;;16.50;99.90;;;;;;5010352;28;20034;-77
2023/09/22 10:52:53;;;;;;;0.40;0.40;;;16.60;99.90;;;;;;5030804;28;20034;-79
2023/09/22 10:55:43;;;;;;;4.15;0.65;;;16.50;99.90;;;;;;5076147;28;20479;-80
2023/09/22 10:58:10;;;;;;;0.45;0.40;;;16.50;99.90;;;;;;5025409;28;20041;-80
2023/09/22 11:00:44;;;;;;;0.00;0.00;;;16.30;99.90;;;;;;5029615;28;20038;-78
2023/09/22 11:03:14;;;;;;;0.08;0.08;;;16.60;99.90;;;;;;5033420;28;20032;-78
2023/09/22 11:05:42;;;;;;;0.20;0.20;;;16.60;99.90;;;;;;5053914;28;20048;-79
2023/09/22 11:08:18;;;;;;;0.00;0.00;;;16.60;99.90;;;;;;5043918;28;20360;-78
2023/09/22 11:10:49;;;;;;;0.00;0.00;;;16.60;99.90;;;;;;5041597;28;20041;-79
2023/09/22 11:13:15;;;;;;;2.10;0.47;;;16.60;99.90;;;;;;5035637;28;20087;-79
2023/09/22 11:15:57;;;;;;;0.00;0.00;;;16.70;99.90;;;;;;5011099;28;20355;-79
2023/09/22 11:18:28;;;;;;;0.40;0.20;;;16.80;99.90;;;;;;5012444;28;20045;-79
2023/09/22 11:21:08;;;;;;;1.75;0.30;;;16.60;99.90;;;;;;5001117;28;20018;-79
2023/09/22 11:23:37;;;;;;;2.70;0.28;;;16.60;99.90;;;;;;5012145;28;20034;-78
2023/09/22 11:26:07;;;;;;;0.15;0.10;;;16.50;99.90;;;;;;4998748;28;20436;-82
2023/09/22 11:28:34;;;;;;;0.30;0.13;;;16.70;99.90;;;;;;5011960;28;20029;-81
2023/09/22 11:31:19;;;;;;;0.10;0.10;;;16.30;99.90;;;;;;5011887;28;20017;-81
2023/09/22 11:33:58;;;;;;;0.52;0.52;;;16.00;99.90;;;;;;5007909;28;20046;-81
2023/09/22 11:36:24;;;;;;;0.00;0.00;;;16.10;99.90;;;;;;5010890;28;20079;-81
2023/09/22 11:38:54;;;;;;;1.40;1.02;;;16.10;99.90;;;;;;5011798;28;20030;-81
2023/09/22 11:41:23;;;;;;;0.00;0.00;;;16.00;99.90;;;;;;5012215;28;20048;-79
2023/09/22 11:43:51;;;;;;;0.00;0.00;;;16.20;99.90;;;;;;5012370;28;20061;-81
2023/09/22 11:46:28;;;;;;;0.08;0.08;;;16.40;99.90;;;;;;5012061;28;20053;-81
2023/09/22 11:48:57;;;;;;;0.00;0.00;;;16.50;99.90;;;;;;5007196;28;20378;-82
2023/09/22 11:51:39;;;;;;;3.30;0.47;;;16.60;99.90;;;;;;5011739;28;20034;-81
2023/09/22 11:54:04;;;;;;;1.25;0.25;;;16.40;99.90;;;;;;5005951;28;20057;-80
2023/09/22 11:56:30;;;;;;;0.35;0.35;;;16.40;99.90;;;;;;5011773;28;20521;-81
2023/09/22 11:59:10;;;;;;;0.13;0.13;;;16.40;99.90;;;;;;5011915;28;20030;-81
2023/09/22 12:01:36;;;;;;;0.10;0.10;;;16.20;99.90;;;;;;5004486;28;20385;-81
2023/09/22 12:04:04;;;;;;;0.77;0.45;;;16.10;99.90;;;;;;4999807;28;20030;-80
2023/09/22 12:06:31;;;;;;;1.55;0.20;;;16.10;99.90;;;;;;5011411;28;20018;-81
2023/09/22 12:08:58;;;;;;;0.40;0.28;;;16.30;99.90;;;;;;5011524;28;20386;-81
2023/09/22 12:11:25;;;;;;;0.08;0.08;;;16.10;99.90;;;;;;5011581;28;20458;-80
2023/09/22 12:13:51;;;;;;;11.05;1.20;;;16.20;99.90;;;;;;5012053;28;20030;-81
2023/09/22 12:16:17;;;;;;;0.10;0.10;;;16.00;99.90;;;;;;5011740;28;20068;-81
2023/09/22 12:18:43;;;;;;;0.13;0.13;;;16.50;99.90;;;;;;5011738;28;20022;-81
2023/09/22 12:21:09;;;;;;;0.00;0.00;;;16.50;99.90;;;;;;5010751;28;20053;-81
2023/09/22 12:23:34;;;;;;;1.70;0.20;;;16.70;99.90;;;;;;5011010;28;20037;-81
2023/09/22 12:26:01;;;;;;;0.00;0.00;;;16.50;99.90;;;;;;5011860;28;20109;-81
2023/09/22 12:28:27;;;;;;;0.08;0.08;;;16.40;99.90;;;;;;5011443;28;20427;-80
2023/09/22 12:30:53;;;;;;;0.10;0.10;;;16.60;99.90;;;;;;5011609;28;20535;-81
2023/09/22 12:33:19;;;;;;;0.47;0.32;;;16.80;99.90;;;;;;5011386;28;20042;-81
2023/09/22 12:35:47;;;;;;;0.30;0.20;;;17.20;99.90;;;;;;5011463;28;20028;-81
2023/09/22 12:38:13;;;;;;;0.10;0.10;;;17.10;99.90;;;;;;5011168;28;20094;-81
2023/09/22 12:40:39;;;;;;;0.00;0.00;;;17.10;99.90;;;;;;5011158;28;20014;-82
2023/09/22 12:43:05;;;;;;;0.73;0.57;;;17.20;99.90;;;;;;5011582;28;20037;-82
2023/09/22 12:45:31;;;;;;;0.35;0.35;;;17.40;99.90;;;;;;5011207;28;20033;-81
2023/09/22 12:47:58;;;;;;;0.25;0.13;;;17.30;99.90;;;;;;5011282;28;20080;-79
2023/09/22 12:50:25;;;;;;;0.20;0.20;;;17.60;99.90;;;;;;5011181;28;20026;-79